Aviation Digital Data Service (ADDS)

Output produced by METARs form (1627 UTC 23 September 2020)
found at http://aviationweather.gov/metar/data/
 
KASD 231123Z 2312/2412 08007KT P6SM BKN035 
     FM231300 09007KT P6SM BKN025 
     FM231500 12009KT P6SM VCSH BKN020 
     FM232300 13011KT 5SM -SHRA BR VCTS BKN015CB 
     FM240400 14010KT P6SM VCSH BKN008